Time;durP1;ratioP1;P1;durP2;ratioP2;P2;SDS_P1;SDS_P2;PMS_P1;PMS_P2;Temp;Humidity;BMP_temperature;BMP_pressure;BME280_temperature;BME280_humidity;BME280_pressure;Samples;Min_cycle;Max_cycle;Signal;HPM_P1;HPM_P2
2024/03/11 00:00:28;;;;;;;11.80;7.45;;;9.50;94.50;;;;;;4952830;28;20051;-83
2024/03/11 00:02:56;;;;;;;12.95;7.90;;;9.50;94.50;;;;;;4930682;28;20042;-82
2024/03/11 00:05:23;;;;;;;11.43;7.10;;;9.50;94.50;;;;;;4933781;28;20053;-83
2024/03/11 00:07:56;;;;;;;12.63;8.18;;;9.50;94.60;;;;;;4929224;28;20055;-81
2024/03/11 00:10:25;;;;;;;11.68;6.60;;;9.50;94.60;;;;;;4931058;29;20051;-84
2024/03/11 00:12:53;;;;;;;11.20;7.25;;;9.50;94.60;;;;;;4952753;29;20047;-82
2024/03/11 00:15:20;;;;;;;13.40;8.02;;;9.40;94.60;;;;;;4932168;29;20050;-82
2024/03/11 00:17:49;;;;;;;15.18;8.65;;;9.40;94.70;;;;;;4987883;28;20066;-82
2024/03/11 00:20:21;;;;;;;13.43;8.35;;;9.40;94.70;;;;;;4944251;29;20146;-82
2024/03/11 00:22:54;;;;;;;16.20;9.23;;;9.40;94.70;;;;;;4964683;28;20034;-82
2024/03/11 00:25:24;;;;;;;14.52;9.05;;;9.40;94.70;;;;;;4933451;29;20403;-82
2024/03/11 00:27:54;;;;;;;13.13;8.25;;;9.40;94.80;;;;;;4954582;28;20047;-82
2024/03/11 00:30:24;;;;;;;12.68;8.00;;;9.40;95.00;;;;;;4944463;28;20078;-82
2024/03/11 00:32:54;;;;;;;12.23;7.93;;;9.40;94.80;;;;;;4938969;29;20414;-81
2024/03/11 00:35:24;;;;;;;11.15;7.30;;;9.40;94.80;;;;;;4959984;28;20074;-82
2024/03/11 00:37:54;;;;;;;12.90;8.50;;;9.40;94.80;;;;;;4961826;28;20054;-82
2024/03/11 00:40:23;;;;;;;13.82;8.25;;;9.40;94.90;;;;;;4957963;28;20455;-82
2024/03/11 00:42:53;;;;;;;11.50;7.60;;;9.40;94.90;;;;;;4932646;29;20049;-82
2024/03/11 00:45:23;;;;;;;15.48;9.65;;;9.40;94.90;;;;;;4956240;28;20050;-83
2024/03/11 00:47:50;;;;;;;15.60;9.63;;;9.40;94.90;;;;;;4952783;28;20495;-82
2024/03/11 00:50:20;;;;;;;16.05;9.38;;;9.40;95.00;;;;;;4930652;28;20058;-81
2024/03/11 00:52:51;;;;;;;11.63;7.82;;;9.30;94.90;;;;;;4940049;28;20039;-81
2024/03/11 00:55:21;;;;;;;13.13;8.98;;;9.30;95.00;;;;;;4932341;28;20506;-81
2024/03/11 00:57:48;;;;;;;13.15;7.63;;;9.30;95.00;;;;;;4942817;28;20116;-83
2024/03/11 01:00:16;;;;;;;11.23;7.80;;;9.30;95.00;;;;;;4949902;28;20055;-83
2024/03/11 01:02:51;;;;;;;12.85;7.60;;;9.30;95.10;;;;;;4938509;28;20142;-82
2024/03/11 01:05:19;;;;;;;15.10;9.93;;;9.30;95.10;;;;;;4921149;28;20051;-82
2024/03/11 01:07:49;;;;;;;12.80;7.90;;;9.30;95.10;;;;;;4923474;28;20047;-83
2024/03/11 01:10:18;;;;;;;16.98;10.88;;;9.30;95.10;;;;;;4950183;28;20098;-83
2024/03/11 01:12:46;;;;;;;16.60;10.43;;;9.30;95.10;;;;;;4940634;28;20055;-83
2024/03/11 01:15:13;;;;;;;14.52;9.70;;;9.30;95.10;;;;;;4940721;28;20043;-83
2024/03/11 01:17:40;;;;;;;15.93;10.30;;;9.30;95.20;;;;;;4957283;28;20069;-83
2024/03/11 01:20:10;;;;;;;14.32;9.10;;;9.30;95.20;;;;;;4941451;29;20047;-82
2024/03/11 01:22:39;;;;;;;14.80;8.98;;;9.30;95.20;;;;;;4946638;28;20051;-82
2024/03/11 01:25:09;;;;;;;14.60;10.32;;;9.30;95.20;;;;;;4934586;28;20050;-83
2024/03/11 01:27:37;;;;;;;16.98;10.55;;;9.30;95.20;;;;;;4969395;28;20034;-82
2024/03/11 01:30:05;;;;;;;15.77;10.38;;;9.30;95.20;;;;;;4928844;28;20054;-82
2024/03/11 01:32:32;;;;;;;14.18;8.95;;;9.30;95.20;;;;;;4922154;28;20496;-82
2024/03/11 01:35:00;;;;;;;15.13;8.60;;;9.30;95.20;;;;;;4943224;28;20050;-83
2024/03/11 01:37:27;;;;;;;13.20;8.68;;;9.30;95.30;;;;;;4954011;28;20038;-83
2024/03/11 01:39:54;;;;;;;13.20;8.20;;;9.30;95.30;;;;;;4915937;28;20399;-83
2024/03/11 01:42:24;;;;;;;13.35;8.02;;;9.30;95.30;;;;;;4965271;28;20479;-82
2024/03/11 01:44:52;;;;;;;14.32;8.82;;;9.30;95.30;;;;;;4925465;28;20050;-82
2024/03/11 01:47:25;;;;;;;12.90;7.90;;;9.30;95.30;;;;;;4979451;28;20046;-82
2024/03/11 01:49:54;;;;;;;13.77;8.15;;;9.30;95.30;;;;;;4971543;28;20070;-83
2024/03/11 01:52:30;;;;;;;13.82;8.02;;;9.30;95.30;;;;;;4956833;28;20098;-82
2024/03/11 01:55:02;;;;;;;12.32;7.97;;;9.30;95.30;;;;;;4948167;28;20058;-82
2024/03/11 01:57:33;;;;;;;11.93;7.32;;;9.30;95.30;;;;;;4974445;28;20042;-82
2024/03/11 02:00:02;;;;;;;11.00;7.63;;;9.30;95.30;;;;;;4954308;28;20096;-82
2024/03/11 02:02:30;;;;;;;10.88;7.13;;;9.40;95.40;;;;;;4943999;28;20511;-82
2024/03/11 02:04:58;;;;;;;12.70;7.38;;;9.30;95.40;;;;;;4966015;28;20051;-82
2024/03/11 02:07:25;;;;;;;16.92;10.18;;;9.40;95.40;;;;;;4961772;28;20042;-82
2024/03/11 02:09:52;;;;;;;11.85;7.93;;;9.30;95.40;;;;;;4952692;28;20073;-83
2024/03/11 02:12:19;;;;;;;11.52;7.57;;;9.40;95.40;;;;;;4925108;28;20138;-82
2024/03/11 02:14:47;;;;;;;14.25;8.20;;;9.30;95.40;;;;;;4923105;28;20050;-83
2024/03/11 02:17:17;;;;;;;12.02;7.63;;;9.30;95.50;;;;;;4940796;28;20154;-82
2024/03/11 02:19:47;;;;;;;11.35;6.97;;;9.40;95.50;;;;;;4940766;28;20133;-82
2024/03/11 02:22:17;;;;;;;12.27;8.00;;;9.30;95.60;;;;;;4923398;29;20082;-82
2024/03/11 02:24:44;;;;;;;10.23;6.75;;;9.30;95.60;;;;;;4950830;29;20591;-83
2024/03/11 02:27:12;;;;;;;12.20;7.25;;;9.30;95.70;;;;;;4931442;28;20511;-82
2024/03/11 02:29:39;;;;;;;14.18;8.60;;;9.30;95.70;;;;;;4932187;29;20052;-83
2024/03/11 02:32:07;;;;;;;17.02;10.43;;;9.20;95.80;;;;;;4920058;29;20451;-83
2024/03/11 02:34:34;;;;;;;15.75;10.70;;;9.20;95.80;;;;;;4933454;29;20039;-82
2024/03/11 02:37:02;;;;;;;15.05;9.07;;;9.20;95.90;;;;;;4926390;28;20594;-82
2024/03/11 02:39:29;;;;;;;14.80;9.40;;;9.20;95.90;;;;;;4930191;28;20496;-82
2024/03/11 02:41:56;;;;;;;15.82;9.82;;;9.20;96.00;;;;;;4949755;28;20057;-83
2024/03/11 02:44:23;;;;;;;12.65;8.50;;;9.10;96.10;;;;;;4958027;28;20050;-82
2024/03/11 02:46:51;;;;;;;13.18;7.97;;;9.10;96.10;;;;;;4947454;28;20150;-82
2024/03/11 02:49:21;;;;;;;14.02;9.02;;;9.10;96.20;;;;;;4931873;29;20058;-82
2024/03/11 02:51:48;;;;;;;12.75;7.90;;;9.10;96.20;;;;;;4933995;28;20047;-83
2024/03/11 02:54:16;;;;;;;10.45;7.15;;;9.10;96.30;;;;;;4945923;28;20051;-83
2024/03/11 02:56:43;;;;;;;12.80;8.30;;;9.00;96.30;;;;;;4959907;28;20046;-82
2024/03/11 02:59:10;;;;;;;13.73;8.73;;;9.00;96.40;;;;;;4960015;28;20043;-82
2024/03/11 03:01:38;;;;;;;14.35;8.35;;;9.00;96.50;;;;;;4940527;28;20537;-82
2024/03/11 03:04:05;;;;;;;13.27;8.48;;;9.00;96.50;;;;;;4931179;28;20131;-81
2024/03/11 03:06:33;;;;;;;14.23;8.35;;;9.00;96.60;;;;;;4947438;29;20043;-82
2024/03/11 03:09:00;;;;;;;12.65;7.97;;;9.00;96.70;;;;;;4954992;28;20043;-82
2024/03/11 03:11:27;;;;;;;13.02;8.07;;;9.00;96.70;;;;;;4940302;28;20074;-83
2024/03/11 03:13:54;;;;;;;13.10;7.65;;;9.00;96.80;;;;;;4952429;28;20054;-82
2024/03/11 03:16:22;;;;;;;11.75;7.57;;;8.90;96.80;;;;;;4946026;28;20050;-82
2024/03/11 03:18:49;;;;;;;12.38;7.53;;;8.90;96.90;;;;;;4965167;28;20043;-82
2024/03/11 03:21:17;;;;;;;10.50;6.65;;;8.90;96.90;;;;;;4937270;28;20101;-82
2024/03/11 03:23:44;;;;;;;11.27;6.72;;;9.00;97.00;;;;;;4965679;28;20047;-82
2024/03/11 03:26:11;;;;;;;10.05;6.25;;;8.90;97.10;;;;;;4955825;28;20042;-82
2024/03/11 03:28:38;;;;;;;10.75;6.40;;;8.90;97.10;;;;;;4929726;28;20055;-82
2024/03/11 03:31:06;;;;;;;10.95;6.65;;;8.90;97.20;;;;;;4941331;29;20503;-82
2024/03/11 03:33:33;;;;;;;12.18;7.38;;;9.00;97.20;;;;;;4956854;28;20106;-82
2024/03/11 03:36:02;;;;;;;11.10;6.85;;;8.90;97.30;;;;;;4919016;28;20058;-83
2024/03/11 03:38:33;;;;;;;11.50;7.15;;;8.90;97.40;;;;;;4957823;28;20047;-82
2024/03/11 03:41:00;;;;;;;14.35;8.88;;;8.80;97.40;;;;;;4935385;29;20487;-82
2024/03/11 03:43:27;;;;;;;13.77;8.35;;;8.80;97.50;;;;;;4946674;28;20070;-82
2024/03/11 03:45:54;;;;;;;12.95;8.00;;;8.70;97.60;;;;;;4923788;29;20059;-82
2024/03/11 03:48:25;;;;;;;12.00;7.85;;;8.70;97.80;;;;;;4928175;29;20039;-82
2024/03/11 03:50:53;;;;;;;15.18;9.75;;;8.60;97.90;;;;;;4953099;29;20047;-83
2024/03/11 03:53:20;;;;;;;14.15;8.75;;;8.60;97.90;;;;;;4911579;28;20049;-82
2024/03/11 03:55:49;;;;;;;15.38;9.13;;;8.60;98.10;;;;;;4955233;28;20042;-81
2024/03/11 03:58:19;;;;;;;15.45;9.02;;;8.50;98.10;;;;;;4937681;28;20062;-82
2024/03/11 04:00:48;;;;;;;16.10;10.13;;;8.50;98.20;;;;;;4935693;28;20057;-81
2024/03/11 04:03:15;;;;;;;14.45;9.48;;;8.50;98.30;;;;;;4911131;28;20133;-81
2024/03/11 04:05:42;;;;;;;15.45;10.07;;;8.50;98.40;;;;;;4926462;28;20063;-82
2024/03/11 04:08:09;;;;;;;14.73;9.52;;;8.50;98.50;;;;;;4927681;29;20035;-83
2024/03/11 04:10:36;;;;;;;14.38;8.95;;;8.50;98.60;;;;;;4929248;28;20067;-82
2024/03/11 04:13:06;;;;;;;17.02;10.18;;;8.40;98.70;;;;;;4929079;29;20102;-82
2024/03/11 04:15:33;;;;;;;16.58;10.18;;;8.40;98.70;;;;;;4945067;29;20047;-82
2024/03/11 04:18:05;;;;;;;14.35;9.43;;;8.40;98.80;;;;;;4914849;29;20057;-82
2024/03/11 04:20:33;;;;;;;16.33;10.25;;;8.40;98.90;;;;;;4934011;28;20053;-82
2024/03/11 04:23:02;;;;;;;15.95;9.45;;;8.40;99.00;;;;;;4976975;28;20403;-82
2024/03/11 04:25:31;;;;;;;16.08;10.20;;;8.40;99.10;;;;;;4944344;28;20406;-83
2024/03/11 04:27:59;;;;;;;15.07;9.88;;;8.40;99.10;;;;;;4929257;28;20051;-83
2024/03/11 04:30:39;;;;;;;16.88;10.50;;;8.40;99.20;;;;;;4924540;28;20055;-83
2024/03/11 04:33:07;;;;;;;15.85;9.88;;;8.40;99.30;;;;;;4944894;28;20384;-82
2024/03/11 04:35:35;;;;;;;20.65;11.65;;;8.30;99.40;;;;;;4928732;28;20097;-81
2024/03/11 04:38:03;;;;;;;21.17;12.57;;;8.30;99.50;;;;;;4915269;29;20055;-81
2024/03/11 04:40:39;;;;;;;21.15;13.48;;;8.30;99.60;;;;;;4969362;28;20523;-81
2024/03/11 04:43:07;;;;;;;22.17;14.35;;;8.20;99.70;;;;;;4966259;28;20069;-80
2024/03/11 04:45:40;;;;;;;21.15;13.60;;;8.20;99.80;;;;;;4959122;28;20550;-84
2024/03/11 04:48:09;;;;;;;22.15;13.82;;;8.20;99.90;;;;;;4966374;28;20053;-82
2024/03/11 04:50:42;;;;;;;19.52;12.50;;;8.20;99.90;;;;;;4925225;29;20043;-82
2024/03/11 04:53:11;;;;;;;17.38;11.77;;;8.20;99.90;;;;;;4938644;28;20137;-82
2024/03/11 04:55:38;;;;;;;17.98;11.50;;;8.20;99.90;;;;;;4941483;28;20101;-82
2024/03/11 04:58:05;;;;;;;19.15;11.18;;;8.20;99.90;;;;;;4948755;29;20110;-82
2024/03/11 05:00:32;;;;;;;17.17;11.18;;;8.20;99.90;;;;;;4942231;28;20404;-82
2024/03/11 05:03:01;;;;;;;16.88;10.65;;;8.20;99.90;;;;;;4937854;28;20492;-81
2024/03/11 05:05:37;;;;;;;17.13;11.40;;;8.20;99.90;;;;;;4966661;28;20396;-82
2024/03/11 05:08:05;;;;;;;16.45;9.73;;;8.20;99.90;;;;;;4941636;28;20043;-82
2024/03/11 05:10:33;;;;;;;16.13;10.80;;;8.20;99.90;;;;;;4946048;28;20050;-82
2024/03/11 05:13:03;;;;;;;19.30;11.45;;;8.20;99.90;;;;;;4923079;29;20055;-82
2024/03/11 05:15:32;;;;;;;18.08;10.95;;;8.10;99.90;;;;;;4930596;28;20079;-81
2024/03/11 05:18:00;;;;;;;19.23;11.85;;;8.10;99.90;;;;;;4965774;28;20049;-80
2024/03/11 05:20:28;;;;;;;16.17;10.65;;;8.10;99.90;;;;;;4941813;29;20484;-81
2024/03/11 05:22:56;;;;;;;16.95;10.45;;;8.10;99.90;;;;;;4963068;28;20047;-82
2024/03/11 05:25:24;;;;;;;19.33;11.45;;;8.10;99.90;;;;;;4934427;28;20047;-81
2024/03/11 05:27:52;;;;;;;18.52;11.95;;;8.10;99.90;;;;;;4937582;28;20047;-81
2024/03/11 05:30:19;;;;;;;18.88;11.93;;;8.10;99.90;;;;;;4947926;28;20043;-81
2024/03/11 05:32:52;;;;;;;19.25;12.15;;;8.10;99.90;;;;;;4944344;28;20153;-82
2024/03/11 05:35:21;;;;;;;23.35;14.80;;;8.10;99.90;;;;;;4935466;28;20049;-82
2024/03/11 05:37:52;;;;;;;21.52;12.85;;;8.10;99.90;;;;;;4959722;28;20050;-81
2024/03/11 05:40:19;;;;;;;19.25;12.82;;;8.10;99.90;;;;;;4941000;28;20126;-81
2024/03/11 05:42:48;;;;;;;20.23;13.98;;;8.10;99.90;;;;;;4952687;28;20046;-81
2024/03/11 05:45:16;;;;;;;19.67;12.73;;;8.00;99.90;;;;;;4955715;28;20066;-81
2024/03/11 05:47:43;;;;;;;19.90;12.02;;;8.00;99.90;;;;;;4967012;28;20145;-82
2024/03/11 05:50:12;;;;;;;19.42;12.63;;;8.00;99.90;;;;;;4971673;28;20101;-82
2024/03/11 05:52:44;;;;;;;22.55;12.80;;;8.00;99.90;;;;;;4950960;29;20170;-82
2024/03/11 05:55:12;;;;;;;19.98;12.18;;;8.00;99.90;;;;;;4935611;28;20051;-82
2024/03/11 05:57:48;;;;;;;23.95;14.27;;;8.00;99.90;;;;;;4941047;28;20493;-82
2024/03/11 06:00:16;;;;;;;18.40;11.25;;;8.00;99.90;;;;;;4943540;28;20039;-82
2024/03/11 06:02:45;;;;;;;16.42;10.98;;;7.90;99.90;;;;;;4941533;29;20070;-82
2024/03/11 06:05:14;;;;;;;19.98;12.88;;;8.00;99.90;;;;;;4964816;28;20054;-82
2024/03/11 06:07:42;;;;;;;16.08;10.80;;;8.00;99.90;;;;;;4961297;28;20097;-82
2024/03/11 06:10:10;;;;;;;21.35;11.85;;;8.00;99.90;;;;;;4969846;28;20045;-82
2024/03/11 06:12:38;;;;;;;15.05;10.13;;;8.00;99.90;;;;;;4967056;28;20102;-81
2024/03/11 06:15:05;;;;;;;19.60;11.50;;;8.00;99.90;;;;;;4951681;29;20078;-81
2024/03/11 06:17:33;;;;;;;17.60;10.40;;;8.00;99.90;;;;;;4940555;28;20155;-81
2024/03/11 06:20:03;;;;;;;16.77;10.95;;;7.90;99.90;;;;;;4937279;29;20090;-81
2024/03/11 06:22:31;;;;;;;16.30;10.30;;;8.00;99.90;;;;;;4960931;28;20062;-82
2024/03/11 06:24:59;;;;;;;14.57;9.82;;;8.00;99.90;;;;;;4957186;28;20135;-81
2024/03/11 06:27:27;;;;;;;13.80;8.80;;;8.00;99.90;;;;;;4944703;28;20456;-82
2024/03/11 06:29:56;;;;;;;13.18;8.00;;;8.00;99.90;;;;;;4915725;28;20110;-81
2024/03/11 06:32:30;;;;;;;13.15;8.07;;;8.00;99.90;;;;;;4937256;29;20075;-82
2024/03/11 06:34:58;;;;;;;12.13;8.48;;;8.00;99.90;;;;;;4941729;28;20106;-81
2024/03/11 06:37:25;;;;;;;14.90;8.50;;;8.00;99.90;;;;;;4935657;28;20065;-82
2024/03/11 06:39:52;;;;;;;11.75;7.15;;;8.00;99.90;;;;;;4947563;29;20377;-82
2024/03/11 06:42:20;;;;;;;12.45;7.45;;;8.00;99.90;;;;;;4927893;28;20039;-82
2024/03/11 06:44:49;;;;;;;9.95;6.28;;;8.10;99.90;;;;;;4945220;28;20062;-82
2024/03/11 06:47:17;;;;;;;12.48;7.20;;;8.10;99.90;;;;;;4947266;28;20058;-82
2024/03/11 06:49:45;;;;;;;13.02;7.00;;;8.10;99.90;;;;;;4947185;28;20170;-82
2024/03/11 06:52:16;;;;;;;11.93;6.75;;;8.10;99.90;;;;;;4915485;28;20058;-82
2024/03/11 06:54:44;;;;;;;11.00;6.47;;;8.10;99.90;;;;;;4966845;28;20062;-82
2024/03/11 06:57:11;;;;;;;10.57;6.43;;;8.10;99.90;;;;;;4957579;28;20051;-82
2024/03/11 06:59:39;;;;;;;12.20;7.15;;;8.20;99.90;;;;;;4944130;28;20043;-82
2024/03/11 07:02:07;;;;;;;9.60;6.10;;;8.20;99.90;;;;;;4930617;28;20054;-82
2024/03/11 07:04:34;;;;;;;11.95;7.30;;;8.20;99.90;;;;;;4937408;28;20125;-81
2024/03/11 07:07:01;;;;;;;12.05;7.47;;;8.10;99.90;;;;;;4928141;28;20130;-82
2024/03/11 07:09:28;;;;;;;12.25;7.68;;;8.10;99.90;;;;;;4963663;28;20042;-81
2024/03/11 07:11:56;;;;;;;12.65;6.75;;;8.10;99.90;;;;;;4936484;28;20046;-82
2024/03/11 07:14:23;;;;;;;11.82;6.90;;;8.10;99.90;;;;;;4931300;28;20135;-82
2024/03/11 07:16:54;;;;;;;13.05;7.85;;;8.10;99.90;;;;;;4969160;28;20057;-82
2024/03/11 07:19:26;;;;;;;;;;;8.10;99.90;;;;;;4950398;28;20105;-82
2024/03/11 07:21:54;;;;;;;11.73;6.18;;;8.10;99.90;;;;;;4959338;28;19961;-83
2024/03/11 07:24:24;;;;;;;12.85;7.22;;;8.10;99.90;;;;;;4944288;28;20050;-82
2024/03/11 07:26:51;;;;;;;11.93;7.47;;;8.10;99.90;;;;;;4943291;28;20102;-81
2024/03/11 07:29:18;;;;;;;12.82;9.18;;;8.10;99.90;;;;;;4943426;28;20051;-82
2024/03/11 07:31:45;;;;;;;12.38;7.53;;;8.10;99.90;;;;;;4945587;28;20150;-81
2024/03/11 07:34:12;;;;;;;13.25;7.65;;;8.10;99.90;;;;;;4955672;28;20051;-82
2024/03/11 07:36:39;;;;;;;13.25;7.80;;;8.10;99.90;;;;;;4932617;28;20054;-81
2024/03/11 07:39:10;;;;;;;11.90;7.85;;;8.10;99.90;;;;;;4936590;29;20047;-82
2024/03/11 07:41:37;;;;;;;11.00;7.30;;;8.10;99.90;;;;;;4941016;28;20162;-82
2024/03/11 07:44:06;;;;;;;11.68;6.78;;;8.10;99.90;;;;;;4926624;29;20045;-81
2024/03/11 07:46:35;;;;;;;11.65;7.05;;;8.10;99.90;;;;;;4935751;28;20058;-81
2024/03/11 07:49:09;;;;;;;13.38;7.88;;;8.10;99.90;;;;;;4914379;28;20125;-82
2024/03/11 07:51:38;;;;;;;12.63;7.85;;;8.10;99.90;;;;;;4916697;29;20051;-82
2024/03/11 07:54:11;;;;;;;11.88;7.60;;;8.10;99.90;;;;;;4940488;28;20059;-82
2024/03/11 07:56:39;;;;;;;12.15;7.60;;;8.10;99.90;;;;;;4929824;28;20494;-81
2024/03/11 07:59:06;;;;;;;12.85;7.30;;;8.10;99.90;;;;;;4926259;28;20046;-84
2024/03/11 08:01:34;;;;;;;13.05;8.10;;;8.10;99.90;;;;;;4949340;29;20043;-82
2024/03/11 08:04:02;;;;;;;13.82;8.20;;;8.10;99.90;;;;;;4925772;28;20416;-82
2024/03/11 08:06:30;;;;;;;13.15;8.02;;;8.00;99.90;;;;;;4950865;29;20043;-81
2024/03/11 08:08:58;;;;;;;13.85;8.60;;;8.00;99.90;;;;;;4956832;28;20093;-82
2024/03/11 08:11:25;;;;;;;12.82;8.02;;;8.00;99.90;;;;;;4939484;28;20042;-82
2024/03/11 08:13:53;;;;;;;12.60;8.00;;;8.10;99.90;;;;;;4923948;29;20083;-82
2024/03/11 08:16:20;;;;;;;14.93;9.13;;;8.10;99.90;;;;;;4921151;29;20047;-82
2024/03/11 08:18:49;;;;;;;14.88;8.85;;;8.10;99.90;;;;;;4976654;28;20049;-83
2024/03/11 08:21:20;;;;;;;13.80;8.57;;;8.00;99.90;;;;;;4925324;28;20054;-82
2024/03/11 08:23:49;;;;;;;14.57;8.50;;;8.00;99.90;;;;;;4950893;28;20419;-82
2024/03/11 08:26:17;;;;;;;14.90;8.93;;;8.00;99.90;;;;;;4985484;28;20411;-82
2024/03/11 08:28:44;;;;;;;13.70;8.52;;;8.00;99.90;;;;;;4928898;28;20078;-83
2024/03/11 08:31:12;;;;;;;15.13;9.07;;;8.00;99.90;;;;;;4915751;29;20043;-80
2024/03/11 08:33:39;;;;;;;15.35;8.75;;;8.00;99.90;;;;;;4925440;29;20043;-82
2024/03/11 08:36:08;;;;;;;14.73;8.57;;;8.00;99.90;;;;;;4954965;29;20520;-81
2024/03/11 08:38:38;;;;;;;13.38;8.77;;;8.00;99.90;;;;;;4950818;28;20043;-81
2024/03/11 08:41:05;;;;;;;13.27;7.97;;;8.00;99.90;;;;;;4971165;28;20533;-79
2024/03/11 08:43:32;;;;;;;12.07;7.65;;;8.00;99.90;;;;;;4973683;28;20487;-81
2024/03/11 08:46:00;;;;;;;12.80;7.55;;;8.10;99.90;;;;;;4923569;28;20431;-82
2024/03/11 08:48:30;;;;;;;13.25;7.60;;;8.10;99.90;;;;;;4944192;29;20051;-81
2024/03/11 08:51:00;;;;;;;13.27;7.28;;;8.10;99.90;;;;;;4910366;29;20047;-82
2024/03/11 08:53:28;;;;;;;13.40;8.35;;;8.10;99.90;;;;;;4941651;29;20094;-82
2024/03/11 08:55:56;;;;;;;17.45;9.98;;;8.10;99.90;;;;;;4946835;29;20054;-82
2024/03/11 08:58:24;;;;;;;15.90;9.13;;;8.10;99.90;;;;;;4911468;29;20055;-79
2024/03/11 09:00:54;;;;;;;15.55;9.55;;;8.10;99.90;;;;;;4917195;29;20498;-81
2024/03/11 09:03:23;;;;;;;16.75;9.68;;;8.00;99.90;;;;;;4929367;29;20445;-81
2024/03/11 09:05:50;;;;;;;15.55;8.98;;;8.00;99.90;;;;;;4931683;28;20066;-82
2024/03/11 09:08:18;;;;;;;15.93;9.00;;;8.00;99.90;;;;;;4938185;28;20054;-82
2024/03/11 09:10:45;;;;;;;15.90;9.25;;;8.00;99.90;;;;;;4905381;29;20420;-80
2024/03/11 09:13:12;;;;;;;16.95;9.68;;;8.10;99.90;;;;;;4926505;29;20078;-79
2024/03/11 09:15:44;;;;;;;13.98;7.47;;;8.10;99.90;;;;;;4937794;29;20460;-79
2024/03/11 09:18:12;;;;;;;14.32;7.97;;;8.10;99.90;;;;;;4910082;29;20091;-78
2024/03/11 09:20:39;;;;;;;15.45;8.30;;;8.20;99.90;;;;;;4926865;28;20047;-79
2024/03/11 09:23:08;;;;;;;14.98;8.40;;;8.20;99.90;;;;;;4938572;28;20047;-78
2024/03/11 09:25:36;;;;;;;15.27;9.57;;;8.20;99.90;;;;;;4956207;28;20046;-81
2024/03/11 09:28:08;;;;;;;14.70;8.40;;;8.20;99.90;;;;;;4934420;28;20043;-81
2024/03/11 09:30:36;;;;;;;14.00;8.05;;;8.30;99.90;;;;;;4938223;29;20106;-89
2024/03/11 09:33:06;;;;;;;14.88;9.15;;;8.30;99.90;;;;;;4925514;29;20040;-79
2024/03/11 09:35:34;;;;;;;15.52;9.27;;;8.30;99.90;;;;;;4947619;29;20040;-78
2024/03/11 09:38:02;;;;;;;12.93;7.97;;;8.30;99.90;;;;;;4915409;29;20118;-81
2024/03/11 09:40:31;;;;;;;13.52;7.88;;;8.30;99.90;;;;;;4924278;29;20389;-80
2024/03/11 09:43:03;;;;;;;15.45;9.30;;;8.30;99.90;;;;;;4942202;28;20046;-83
2024/03/11 09:45:34;;;;;;;13.95;8.60;;;8.20;99.90;;;;;;4936845;29;20047;-79
2024/03/11 09:48:04;;;;;;;14.00;8.30;;;8.20;99.90;;;;;;4934394;29;20142;-79
2024/03/11 09:50:35;;;;;;;17.70;10.75;;;8.20;99.90;;;;;;4932002;29;20059;-79
2024/03/11 09:53:18;;;;;;;18.23;10.38;;;8.20;99.90;;;;;;4927710;29;20403;-79
2024/03/11 09:55:46;;;;;;;15.27;9.10;;;8.20;99.90;;;;;;4924407;29;20043;-78
2024/03/11 09:58:15;;;;;;;16.58;10.20;;;8.10;99.90;;;;;;4918544;29;20059;-77
2024/03/11 10:00:48;;;;;;;15.73;9.38;;;8.10;99.90;;;;;;4932308;29;20047;-78
2024/03/11 10:03:20;;;;;;;14.80;8.63;;;8.20;99.90;;;;;;4961087;28;20475;-79
2024/03/11 10:05:59;;;;;;;14.07;8.23;;;8.20;99.90;;;;;;4943638;29;20051;-79
2024/03/11 10:08:31;;;;;;;13.82;8.15;;;8.20;99.90;;;;;;4939971;28;20047;-80
2024/03/11 10:11:24;;;;;;;15.20;9.35;;;8.20;99.90;;;;;;4936535;29;20048;-80
2024/03/11 10:13:53;;;;;;;16.00;9.32;;;8.20;99.90;;;;;;4937439;29;20484;-80
2024/03/11 10:16:26;;;;;;;16.50;9.25;;;8.20;99.90;;;;;;4939451;28;20106;-80
2024/03/11 10:19:00;;;;;;;14.35;8.95;;;8.10;99.90;;;;;;4961062;28;20043;-83
2024/03/11 10:21:35;;;;;;;13.30;7.55;;;8.20;99.90;;;;;;4921257;29;20055;-80
2024/03/11 10:24:08;;;;;;;14.00;8.00;;;8.20;99.90;;;;;;4958743;28;20400;-81
2024/03/11 10:26:42;;;;;;;13.35;7.85;;;8.20;99.90;;;;;;4939198;29;20480;-81
2024/03/11 10:29:16;;;;;;;13.98;8.43;;;8.20;99.90;;;;;;4934341;29;20054;-80
2024/03/11 10:31:45;;;;;;;17.33;9.52;;;8.20;99.90;;;;;;4936160;29;20056;-83
2024/03/11 10:34:21;;;;;;;17.48;10.48;;;8.20;99.90;;;;;;4913739;28;20380;-83
2024/03/11 10:36:57;;;;;;;15.27;8.85;;;8.20;99.90;;;;;;4924609;29;20484;-80
2024/03/11 10:39:37;;;;;;;12.75;7.28;;;8.20;99.90;;;;;;4927329;29;20130;-84
2024/03/11 10:42:11;;;;;;;13.25;8.07;;;8.20;99.90;;;;;;4941211;29;20055;-83
2024/03/11 10:44:40;;;;;;;13.05;7.88;;;8.20;99.90;;;;;;4927004;29;20131;-81
2024/03/11 10:47:14;;;;;;;12.80;7.50;;;8.20;99.90;;;;;;4938935;28;20047;-84
2024/03/11 10:49:48;;;;;;;12.23;7.60;;;8.20;99.90;;;;;;4950795;29;20040;-82
2024/03/11 10:52:25;;;;;;;11.55;6.68;;;8.30;99.90;;;;;;4942322;28;20061;-82
2024/03/11 10:54:54;;;;;;;10.80;6.63;;;8.30;99.90;;;;;;4963441;28;20104;-81
2024/03/11 10:57:39;;;;;;;12.53;6.20;;;8.30;99.90;;;;;;4990061;28;20400;-83
2024/03/11 11:02:55;;;;;;;11.43;5.97;;;8.40;99.90;;;;;;4970355;28;20066;-80
2024/03/11 11:05:32;;;;;;;11.55;6.28;;;8.40;99.90;;;;;;4953453;28;20038;-83
2024/03/11 11:08:02;;;;;;;11.60;6.85;;;8.30;99.90;;;;;;4972675;28;20566;-82
2024/03/11 11:10:35;;;;;;;13.32;8.05;;;8.30;99.90;;;;;;4965747;28;20078;-82
2024/03/11 11:13:05;;;;;;;15.13;8.57;;;8.30;99.90;;;;;;4926792;28;20078;-80
2024/03/11 11:15:37;;;;;;;17.50;8.23;;;8.40;99.90;;;;;;4940624;29;20047;-81
2024/03/11 11:18:18;;;;;;;14.68;7.85;;;8.30;99.90;;;;;;4931479;29;20495;-83
2024/03/11 11:20:49;;;;;;;15.50;9.55;;;8.30;99.90;;;;;;4957275;28;20046;-84
2024/03/11 11:23:28;;;;;;;16.95;9.27;;;8.30;99.90;;;;;;4956288;28;20094;-83
2024/03/11 11:25:57;;;;;;;16.63;9.88;;;8.30;99.90;;;;;;4923241;28;20411;-78
2024/03/11 11:28:38;;;;;;;19.08;10.07;;;8.30;99.90;;;;;;4943306;29;20448;-82
2024/03/11 11:31:11;;;;;;;18.85;11.63;;;8.30;99.90;;;;;;4951155;28;20035;-83
2024/03/11 11:34:02;;;;;;;17.38;10.23;;;8.30;99.90;;;;;;4947580;28;20138;-80
2024/03/11 11:36:39;;;;;;;17.55;9.25;;;8.30;99.90;;;;;;4975319;28;20043;-81
2024/03/11 11:39:27;;;;;;;15.52;8.38;;;8.30;99.90;;;;;;4950777;28;20061;-80
2024/03/11 11:41:57;;;;;;;15.38;8.40;;;8.40;99.90;;;;;;4947049;28;20057;-83
2024/03/11 11:44:27;;;;;;;14.82;8.68;;;8.40;99.90;;;;;;4937625;29;20135;-83
2024/03/11 11:47:05;;;;;;;14.65;8.68;;;8.40;99.90;;;;;;4956510;28;20054;-84
2024/03/11 11:49:40;;;;;;;14.20;8.15;;;8.40;99.90;;;;;;4959278;28;20050;-83
2024/03/11 11:52:08;;;;;;;11.65;7.32;;;8.40;99.90;;;;;;4958850;28;20050;-82
2024/03/11 11:54:35;;;;;;;14.90;7.97;;;8.40;99.90;;;;;;4919557;29;20051;-82
2024/03/11 11:57:11;;;;;;;12.48;7.68;;;8.50;99.90;;;;;;4962608;28;20043;-81
2024/03/11 11:59:41;;;;;;;14.02;7.55;;;8.50;99.90;;;;;;4950137;28;20039;-83
2024/03/11 12:02:21;;;;;;;16.10;9.27;;;8.50;99.90;;;;;;4953424;28;20047;-82
2024/03/11 12:04:50;;;;;;;16.20;8.85;;;8.50;99.90;;;;;;4960969;28;20046;-82
2024/03/11 12:07:22;;;;;;;16.08;9.60;;;8.50;99.90;;;;;;4947804;28;20128;-82
2024/03/11 12:09:58;;;;;;;13.02;8.27;;;8.50;99.90;;;;;;4976316;28;20050;-84
2024/03/11 12:12:34;;;;;;;15.65;8.73;;;8.40;99.90;;;;;;4930071;28;20051;-83
2024/03/11 12:15:02;;;;;;;15.00;8.00;;;8.50;99.90;;;;;;4960605;28;20153;-82
2024/03/11 12:17:31;;;;;;;16.30;9.05;;;8.50;99.90;;;;;;4974350;28;20149;-82
2024/03/11 12:20:19;;;;;;;16.38;9.48;;;8.50;99.90;;;;;;4977394;28;20450;-81
2024/03/11 12:22:55;;;;;;;17.13;9.60;;;8.50;99.90;;;;;;4962519;28;20046;-81
2024/03/11 12:25:22;;;;;;;14.45;8.98;;;8.50;99.90;;;;;;4973725;28;20101;-82
2024/03/11 12:27:54;;;;;;;17.63;10.90;;;8.50;99.90;;;;;;4950844;28;20043;-78
2024/03/11 12:30:37;;;;;;;15.65;9.30;;;8.50;99.90;;;;;;4943401;28;20053;-79
2024/03/11 12:33:08;;;;;;;17.27;8.38;;;8.60;99.90;;;;;;4964780;28;20052;-79
2024/03/11 12:35:43;;;;;;;14.52;8.40;;;8.60;99.90;;;;;;4961606;28;20051;-78
2024/03/11 12:38:13;;;;;;;12.27;7.47;;;8.60;99.90;;;;;;4956708;28;20058;-78
2024/03/11 12:40:46;;;;;;;16.33;8.32;;;8.60;99.90;;;;;;4987043;28;20042;-79
2024/03/11 12:43:30;;;;;;;12.80;7.32;;;8.60;99.90;;;;;;4950759;28;20406;-79
2024/03/11 12:46:00;;;;;;;10.68;6.20;;;8.60;99.90;;;;;;4958272;28;20074;-79
2024/03/11 12:48:29;;;;;;;11.75;7.03;;;8.60;99.90;;;;;;4944262;29;20089;-78
2024/03/11 12:50:58;;;;;;;13.45;7.85;;;8.60;99.90;;;;;;4933065;28;20052;-91
2024/03/11 12:53:27;;;;;;;14.70;7.38;;;8.70;99.90;;;;;;4976979;28;20048;-79
2024/03/11 12:56:07;;;;;;;14.85;8.93;;;8.60;99.90;;;;;;4952400;29;20051;-79
2024/03/11 12:58:36;;;;;;;14.80;8.80;;;8.60;99.90;;;;;;4976350;28;20042;-79
2024/03/11 13:01:12;;;;;;;13.07;8.20;;;8.60;99.90;;;;;;4958714;28;20125;-79